sensor_id;sensor_type;location;lat;lon;timestamp;temperature;humidity
55008;DHT22;40902;45.116;21.296;2023-04-01T00:00:17;384.20;2329.60
55008;DHT22;40902;45.116;21.296;2023-04-01T00:02:43;384.00;2329.60
55008;DHT22;40902;45.116;21.296;2023-04-01T00:05:09;359.30;2329.60
55008;DHT22;40902;45.116;21.296;2023-04-01T00:07:39;359.20;2329.60
55008;DHT22;40902;45.116;21.296;2023-04-01T00:10:11;359.10;2329.60
55008;DHT22;40902;45.116;21.296;2023-04-01T00:12:38;359.10;2329.60
55008;DHT22;40902;45.116;21.296;2023-04-01T00:15:06;359.00;2329.60
55008;DHT22;40902;45.116;21.296;2023-04-01T00:17:32;359.10;2329.60
55008;DHT22;40902;45.116;21.296;2023-04-01T00:19:58;359.00;2329.60
55008;DHT22;40902;45.116;21.296;2023-04-01T00:22:25;359.00;2329.60
55008;DHT22;40902;45.116;21.296;2023-04-01T00:24:51;358.90;2329.60
55008;DHT22;40902;45.116;21.296;2023-04-01T00:27:17;358.90;2329.60
55008;DHT22;40902;45.116;21.296;2023-04-01T00:29:44;358.90;2329.60
55008;DHT22;40902;45.116;21.296;2023-04-01T00:32:10;358.90;2329.60
55008;DHT22;40902;45.116;21.296;2023-04-01T00:34:36;358.90;2329.60
55008;DHT22;40902;45.116;21.296;2023-04-01T00:37:02;358.80;2329.60
55008;DHT22;40902;45.116;21.296;2023-04-01T00:39:32;358.80;2329.60
55008;DHT22;40902;45.116;21.296;2023-04-01T00:41:59;358.80;2329.60
55008;DHT22;40902;45.116;21.296;2023-04-01T00:44:33;358.80;2329.60
55008;DHT22;40902;45.116;21.296;2023-04-01T00:46:59;358.90;2329.60
55008;DHT22;40902;45.116;21.296;2023-04-01T00:49:32;358.80;2329.60
55008;DHT22;40902;45.116;21.296;2023-04-01T00:52:02;358.80;2329.60
55008;DHT22;40902;45.116;21.296;2023-04-01T00:54:30;358.90;2329.60
55008;DHT22;40902;45.116;21.296;2023-04-01T00:57:09;358.80;2329.60
55008;DHT22;40902;45.116;21.296;2023-04-01T00:59:42;358.80;2329.60
55008;DHT22;40902;45.116;21.296;2023-04-01T01:02:11;358.80;2329.60
55008;DHT22;40902;45.116;21.296;2023-04-01T01:04:37;358.90;2329.60
55008;DHT22;40902;45.116;21.296;2023-04-01T01:15:59;358.80;2329.60
55008;DHT22;40902;45.116;21.296;2023-04-01T01:18:40;358.80;2329.60
55008;DHT22;40902;45.116;21.296;2023-04-01T01:35:26;358.80;2329.60
55008;DHT22;40902;45.116;21.296;2023-04-01T01:38:00;358.80;2329.60
55008;DHT22;40902;45.116;21.296;2023-04-01T01:40:29;358.80;2329.60
55008;DHT22;40902;45.116;21.296;2023-04-01T01:42:59;358.80;2329.60
55008;DHT22;40902;45.116;21.296;2023-04-01T01:45:26;358.80;2329.60
55008;DHT22;40902;45.116;21.296;2023-04-01T01:47:53;358.90;2329.60
55008;DHT22;40902;45.116;21.296;2023-04-01T01:50:21;358.90;2329.60
55008;DHT22;40902;45.116;21.296;2023-04-01T01:52:48;358.90;2329.60
55008;DHT22;40902;45.116;21.296;2023-04-01T01:55:30;358.90;2329.60
55008;DHT22;40902;45.116;21.296;2023-04-01T01:57:59;358.90;2329.60
55008;DHT22;40902;45.116;21.296;2023-04-01T02:00:26;358.90;2329.60
55008;DHT22;40902;45.116;21.296;2023-04-01T02:02:53;359.00;2329.60
55008;DHT22;40902;45.116;21.296;2023-04-01T02:05:25;359.00;2329.60
55008;DHT22;40902;45.116;21.296;2023-04-01T02:08:07;359.00;2329.60
55008;DHT22;40902;45.116;21.296;2023-04-01T02:10:36;359.00;2329.60
55008;DHT22;40902;45.116;21.296;2023-04-01T02:13:08;359.00;2329.60
55008;DHT22;40902;45.116;21.296;2023-04-01T02:15:41;359.00;2329.60
55008;DHT22;40902;45.116;21.296;2023-04-01T02:18:09;359.10;2329.60
55008;DHT22;40902;45.116;21.296;2023-04-01T02:20:37;359.20;2329.60
55008;DHT22;40902;45.116;21.296;2023-04-01T02:23:04;359.20;2329.60
55008;DHT22;40902;45.116;21.296;2023-04-01T02:25:34;359.20;2329.60
55008;DHT22;40902;45.116;21.296;2023-04-01T02:28:02;359.30;2329.60
55008;DHT22;40902;45.116;21.296;2023-04-01T02:30:29;359.30;2329.60
55008;DHT22;40902;45.116;21.296;2023-04-01T02:32:58;359.30;2329.60
55008;DHT22;40902;45.116;21.296;2023-04-01T02:35:25;359.30;2329.60
55008;DHT22;40902;45.116;21.296;2023-04-01T02:37:52;359.30;2329.60
55008;DHT22;40902;45.116;21.296;2023-04-01T02:40:19;359.30;2329.60
55008;DHT22;40902;45.116;21.296;2023-04-01T02:42:45;359.30;2329.60
55008;DHT22;40902;45.116;21.296;2023-04-01T02:45:12;359.30;2329.60
55008;DHT22;40902;45.116;21.296;2023-04-01T02:47:38;359.30;2329.60
55008;DHT22;40902;45.116;21.296;2023-04-01T02:50:04;359.30;2329.60
55008;DHT22;40902;45.116;21.296;2023-04-01T02:52:31;384.00;2329.60
55008;DHT22;40902;45.116;21.296;2023-04-01T02:54:57;384.00;2329.60
55008;DHT22;40902;45.116;21.296;2023-04-01T02:57:23;384.10;2329.60
55008;DHT22;40902;45.116;21.296;2023-04-01T02:59:49;384.00;2329.60
55008;DHT22;40902;45.116;21.296;2023-04-01T03:02:16;384.00;2329.60
55008;DHT22;40902;45.116;21.296;2023-04-01T03:04:43;384.00;2329.60
55008;DHT22;40902;45.116;21.296;2023-04-01T03:07:09;359.30;2329.60
55008;DHT22;40902;45.116;21.296;2023-04-01T03:09:36;359.30;2329.60
55008;DHT22;40902;45.116;21.296;2023-04-01T03:12:02;384.00;2329.60
55008;DHT22;40902;45.116;21.296;2023-04-01T03:14:28;384.10;2329.60
55008;DHT22;40902;45.116;21.296;2023-04-01T03:16:54;384.10;2329.60
55008;DHT22;40902;45.116;21.296;2023-04-01T03:19:20;384.20;2329.60
55008;DHT22;40902;45.116;21.296;2023-04-01T03:21:46;384.20;2329.60
55008;DHT22;40902;45.116;21.296;2023-04-01T03:24:11;384.10;2329.60
55008;DHT22;40902;45.116;21.296;2023-04-01T03:26:37;384.10;2329.60
55008;DHT22;40902;45.116;21.296;2023-04-01T03:29:03;384.10;2329.60
55008;DHT22;40902;45.116;21.296;2023-04-01T03:31:28;384.00;2329.60
55008;DHT22;40902;45.116;21.296;2023-04-01T03:33:54;359.30;2329.60
55008;DHT22;40902;45.116;21.296;2023-04-01T03:36:20;359.10;2329.60
55008;DHT22;40902;45.116;21.296;2023-04-01T03:38:46;359.00;2329.60
55008;DHT22;40902;45.116;21.296;2023-04-01T03:41:16;358.90;2329.60
55008;DHT22;40902;45.116;21.296;2023-04-01T03:43:42;358.90;2329.60
55008;DHT22;40902;45.116;21.296;2023-04-01T03:46:08;358.80;2329.60
55008;DHT22;40902;45.116;21.296;2023-04-01T03:48:34;358.80;2329.60
55008;DHT22;40902;45.116;21.296;2023-04-01T03:51:00;358.80;2329.60
55008;DHT22;40902;45.116;21.296;2023-04-01T03:53:26;358.80;2329.60
55008;DHT22;40902;45.116;21.296;2023-04-01T03:55:52;358.70;2329.60
55008;DHT22;40902;45.116;21.296;2023-04-01T03:58:19;358.70;2329.60
55008;DHT22;40902;45.116;21.296;2023-04-01T04:00:45;358.70;2329.60
55008;DHT22;40902;45.116;21.296;2023-04-01T04:03:11;358.60;2329.60
55008;DHT22;40902;45.116;21.296;2023-04-01T04:05:37;358.60;2329.60
55008;DHT22;40902;45.116;21.296;2023-04-01T04:08:02;358.60;2329.60
55008;DHT22;40902;45.116;21.296;2023-04-01T04:10:28;358.50;2329.60
55008;DHT22;40902;45.116;21.296;2023-04-01T04:12:55;358.50;2329.60
55008;DHT22;40902;45.116;21.296;2023-04-01T04:15:21;358.50;2329.60
55008;DHT22;40902;45.116;21.296;2023-04-01T04:17:47;358.40;2329.60
55008;DHT22;40902;45.116;21.296;2023-04-01T04:20:13;358.40;2329.60
55008;DHT22;40902;45.116;21.296;2023-04-01T04:22:39;358.40;2329.60
55008;DHT22;40902;45.116;21.296;2023-04-01T04:25:05;333.60;2329.60
55008;DHT22;40902;45.116;21.296;2023-04-01T04:27:31;333.60;2329.60
55008;DHT22;40902;45.116;21.296;2023-04-01T04:29:56;333.50;2329.60
55008;DHT22;40902;45.116;21.296;2023-04-01T04:32:22;333.40;2329.60
55008;DHT22;40902;45.116;21.296;2023-04-01T04:34:48;333.40;2329.60
55008;DHT22;40902;45.116;21.296;2023-04-01T04:37:13;333.40;2329.60
55008;DHT22;40902;45.116;21.296;2023-04-01T04:39:39;333.40;2329.60
55008;DHT22;40902;45.116;21.296;2023-04-01T04:42:05;333.30;2329.60
55008;DHT22;40902;45.116;21.296;2023-04-01T04:44:31;333.30;2329.60
55008;DHT22;40902;45.116;21.296;2023-04-01T04:46:57;333.30;2329.60
55008;DHT22;40902;45.116;21.296;2023-04-01T04:49:22;333.40;2329.60
55008;DHT22;40902;45.116;21.296;2023-04-01T04:51:48;333.40;2329.60
55008;DHT22;40902;45.116;21.296;2023-04-01T04:54:14;333.50;2329.60
55008;DHT22;40902;45.116;21.296;2023-04-01T04:56:39;333.50;2329.60
55008;DHT22;40902;45.116;21.296;2023-04-01T04:59:06;333.50;2329.60
55008;DHT22;40902;45.116;21.296;2023-04-01T05:01:32;333.50;2329.60
55008;DHT22;40902;45.116;21.296;2023-04-01T05:03:59;333.50;2329.60
55008;DHT22;40902;45.116;21.296;2023-04-01T05:06:25;333.50;2329.60
55008;DHT22;40902;45.116;21.296;2023-04-01T05:08:55;333.50;2329.60
55008;DHT22;40902;45.116;21.296;2023-04-01T05:11:21;333.60;2329.60
55008;DHT22;40902;45.116;21.296;2023-04-01T05:13:47;333.60;2329.60
55008;DHT22;40902;45.116;21.296;2023-04-01T05:16:15;333.50;2329.60
55008;DHT22;40902;45.116;21.296;2023-04-01T05:18:41;333.60;2329.60
55008;DHT22;40902;45.116;21.296;2023-04-01T05:21:11;333.50;2329.60
55008;DHT22;40902;45.116;21.296;2023-04-01T05:23:37;333.50;2329.60
55008;DHT22;40902;45.116;21.296;2023-04-01T05:26:04;333.60;2329.60
55008;DHT22;40902;45.116;21.296;2023-04-01T05:28:30;333.60;2329.60
55008;DHT22;40902;45.116;21.296;2023-04-01T05:30:58;333.70;2329.60
55008;DHT22;40902;45.116;21.296;2023-04-01T05:33:25;333.70;2329.60
55008;DHT22;40902;45.116;21.296;2023-04-01T05:35:50;333.70;2329.60
55008;DHT22;40902;45.116;21.296;2023-04-01T05:38:16;358.40;2329.60
55008;DHT22;40902;45.116;21.296;2023-04-01T05:40:42;358.50;2329.60
55008;DHT22;40902;45.116;21.296;2023-04-01T05:43:07;358.50;2329.60
55008;DHT22;40902;45.116;21.296;2023-04-01T05:45:34;358.50;2329.60
55008;DHT22;40902;45.116;21.296;2023-04-01T05:47:59;358.60;2329.60
55008;DHT22;40902;45.116;21.296;2023-04-01T05:50:26;358.60;2329.60
55008;DHT22;40902;45.116;21.296;2023-04-01T05:52:52;358.60;2329.60
55008;DHT22;40902;45.116;21.296;2023-04-01T05:55:18;358.70;2329.60
55008;DHT22;40902;45.116;21.296;2023-04-01T05:57:45;358.80;2329.60
55008;DHT22;40902;45.116;21.296;2023-04-01T06:00:12;358.80;2329.60
55008;DHT22;40902;45.116;21.296;2023-04-01T06:02:38;358.90;2329.60
55008;DHT22;40902;45.116;21.296;2023-04-01T06:05:18;358.90;2329.60
55008;DHT22;40902;45.116;21.296;2023-04-01T06:07:44;359.00;2329.60
55008;DHT22;40902;45.116;21.296;2023-04-01T06:10:13;359.00;2329.60
55008;DHT22;40902;45.116;21.296;2023-04-01T06:12:54;358.90;2329.60
55008;DHT22;40902;45.116;21.296;2023-04-01T06:20:49;359.00;2329.60
55008;DHT22;40902;45.116;21.296;2023-04-01T06:23:31;359.10;2329.60
55008;DHT22;40902;45.116;21.296;2023-04-01T06:45:41;359.20;2329.60
55008;DHT22;40902;45.116;21.296;2023-04-01T06:51:47;359.20;2329.60
55008;DHT22;40902;45.116;21.296;2023-04-01T06:54:20;359.20;2329.60
55008;DHT22;40902;45.116;21.296;2023-04-01T06:56:49;359.20;2329.60
55008;DHT22;40902;45.116;21.296;2023-04-01T06:59:20;359.20;2329.60
55008;DHT22;40902;45.116;21.296;2023-04-01T07:04:43;359.20;2329.60
55008;DHT22;40902;45.116;21.296;2023-04-01T07:09:54;359.10;2329.60
55008;DHT22;40902;45.116;21.296;2023-04-01T07:15:09;359.30;2329.60
55008;DHT22;40902;45.116;21.296;2023-04-01T07:17:39;359.30;2329.60
55008;DHT22;40902;45.116;21.296;2023-04-01T07:22:39;359.20;2329.60
55008;DHT22;40902;45.116;21.296;2023-04-01T07:27:42;359.20;2329.60
55008;DHT22;40902;45.116;21.296;2023-04-01T07:36:14;359.10;2329.60
55008;DHT22;40902;45.116;21.296;2023-04-01T07:43:59;359.00;2329.60
55008;DHT22;40902;45.116;21.296;2023-04-01T07:46:39;358.90;2329.60
55008;DHT22;40902;45.116;21.296;2023-04-01T07:49:25;358.90;2329.60
55008;DHT22;40902;45.116;21.296;2023-04-01T08:05:57;358.70;2329.60
55008;DHT22;40902;45.116;21.296;2023-04-01T08:11:45;358.60;2329.60
55008;DHT22;40902;45.116;21.296;2023-04-01T08:16:53;358.60;2329.60
55008;DHT22;40902;45.116;21.296;2023-04-01T08:19:31;358.60;2329.60
55008;DHT22;40902;45.116;21.296;2023-04-01T08:22:12;358.60;2329.60
55008;DHT22;40902;45.116;21.296;2023-04-01T08:24:45;358.60;2329.60
55008;DHT22;40902;45.116;21.296;2023-04-01T08:27:18;358.70;2329.60
55008;DHT22;40902;45.116;21.296;2023-04-01T08:32:32;358.80;2329.60
55008;DHT22;40902;45.116;21.296;2023-04-01T08:35:31;359.00;2329.60
55008;DHT22;40902;45.116;21.296;2023-04-01T08:38:11;359.00;2329.60
55008;DHT22;40902;45.116;21.296;2023-04-01T08:57:25;359.00;2329.60
55008;DHT22;40902;45.116;21.296;2023-04-01T09:00:25;359.00;2329.60
55008;DHT22;40902;45.116;21.296;2023-04-01T09:08:48;359.10;2329.60
55008;DHT22;40902;45.116;21.296;2023-04-01T09:11:33;359.00;2329.60
55008;DHT22;40902;45.116;21.296;2023-04-01T09:30:33;358.90;2329.60
55008;DHT22;40902;45.116;21.296;2023-04-01T09:38:47;358.90;2329.60
55008;DHT22;40902;45.116;21.296;2023-04-01T09:41:31;358.90;2329.60
55008;DHT22;40902;45.116;21.296;2023-04-01T09:44:11;359.00;2329.60
55008;DHT22;40902;45.116;21.296;2023-04-01T09:57:22;359.30;2329.60
55008;DHT22;40902;45.116;21.296;2023-04-01T10:20:01;384.50;2329.60
55008;DHT22;40902;45.116;21.296;2023-04-01T10:30:50;384.50;2329.60
55008;DHT22;40902;45.116;21.296;2023-04-01T10:56:33;384.00;2329.60
55008;DHT22;40902;45.116;21.296;2023-04-01T11:33:05;307.90;2304.00
55008;DHT22;40902;45.116;21.296;2023-04-01T11:35:42;307.90;2304.00
55008;DHT22;40902;45.116;21.296;2023-04-01T11:41:13;307.90;2304.00
55008;DHT22;40902;45.116;21.296;2023-04-01T11:50:18;307.90;2304.00
55008;DHT22;40902;45.116;21.296;2023-04-01T12:01:22;308.10;2304.00
55008;DHT22;40902;45.116;21.296;2023-04-01T12:15:00;332.80;2329.60
55008;DHT22;40902;45.116;21.296;2023-04-01T12:40:17;333.00;2329.60
55008;DHT22;40902;45.116;21.296;2023-04-01T12:55:48;332.80;2329.60
55008;DHT22;40902;45.116;21.296;2023-04-01T12:58:51;308.10;2304.00
55008;DHT22;40902;45.116;21.296;2023-04-01T13:04:13;308.00;2304.00
55008;DHT22;40902;45.116;21.296;2023-04-01T13:12:29;307.70;2304.00
55008;DHT22;40902;45.116;21.296;2023-04-01T13:26:27;307.60;2304.00
55008;DHT22;40902;45.116;21.296;2023-04-01T13:29:35;307.70;2304.00
55008;DHT22;40902;45.116;21.296;2023-04-01T13:32:34;307.60;2304.00
55008;DHT22;40902;45.116;21.296;2023-04-01T13:43:24;307.50;2304.00
55008;DHT22;40902;45.116;21.296;2023-04-01T13:51:15;307.30;2304.00
55008;DHT22;40902;45.116;21.296;2023-04-01T14:38:16;282.30;2278.40
55008;DHT22;40902;45.116;21.296;2023-04-01T14:49:52;282.40;2278.40
55008;DHT22;40902;45.116;21.296;2023-04-01T14:54:48;282.40;2278.40
55008;DHT22;40902;45.116;21.296;2023-04-01T14:57:24;282.40;2278.40
55008;DHT22;40902;45.116;21.296;2023-04-01T15:27:16;307.20;2304.00
55008;DHT22;40902;45.116;21.296;2023-04-01T15:43:00;282.50;2278.40
55008;DHT22;40902;45.116;21.296;2023-04-01T16:03:07;307.30;2304.00
55008;DHT22;40902;45.116;21.296;2023-04-01T16:17:05;307.20;2304.00
55008;DHT22;40902;45.116;21.296;2023-04-01T16:22:28;307.70;2304.00
55008;DHT22;40902;45.116;21.296;2023-04-01T16:28:23;307.70;2304.00
55008;DHT22;40902;45.116;21.296;2023-04-01T16:31:42;307.40;2304.00
55008;DHT22;40902;45.116;21.296;2023-04-01T16:37:00;307.30;2304.00
55008;DHT22;40902;45.116;21.296;2023-04-01T16:39:49;307.30;2304.00
55008;DHT22;40902;45.116;21.296;2023-04-01T16:48:12;307.20;2304.00
55008;DHT22;40902;45.116;21.296;2023-04-01T16:50:59;307.20;2304.00
55008;DHT22;40902;45.116;21.296;2023-04-01T16:53:47;307.20;2304.00
55008;DHT22;40902;45.116;21.296;2023-04-01T16:56:22;307.30;2304.00
55008;DHT22;40902;45.116;21.296;2023-04-01T16:58:58;307.30;2304.00
55008;DHT22;40902;45.116;21.296;2023-04-01T17:01:30;307.20;2304.00
55008;DHT22;40902;45.116;21.296;2023-04-01T17:04:07;307.20;2304.00
55008;DHT22;40902;45.116;21.296;2023-04-01T17:15:11;307.20;2304.00
55008;DHT22;40902;45.116;21.296;2023-04-01T17:37:06;307.20;2304.00
55008;DHT22;40902;45.116;21.296;2023-04-01T17:47:49;307.20;2304.00
55008;DHT22;40902;45.116;21.296;2023-04-01T18:01:45;307.30;2304.00
55008;DHT22;40902;45.116;21.296;2023-04-01T18:04:25;307.20;2304.00
55008;DHT22;40902;45.116;21.296;2023-04-01T18:12:33;282.50;2278.40
55008;DHT22;40902;45.116;21.296;2023-04-01T18:23:46;282.40;2278.40
55008;DHT22;40902;45.116;21.296;2023-04-01T18:26:22;282.40;2278.40
55008;DHT22;40902;45.116;21.296;2023-04-01T18:28:54;282.40;2278.40
55008;DHT22;40902;45.116;21.296;2023-04-01T18:31:36;282.40;2278.40
55008;DHT22;40902;45.116;21.296;2023-04-01T18:34:12;282.40;2278.40
55008;DHT22;40902;45.116;21.296;2023-04-01T18:39:40;282.30;2278.40
55008;DHT22;40902;45.116;21.296;2023-04-01T18:44:46;282.30;2278.40
55008;DHT22;40902;45.116;21.296;2023-04-01T18:50:32;282.30;2278.40
55008;DHT22;40902;45.116;21.296;2023-04-01T19:01:47;282.20;2278.40
55008;DHT22;40902;45.116;21.296;2023-04-01T19:04:41;282.20;2278.40
55008;DHT22;40902;45.116;21.296;2023-04-01T19:07:50;282.20;2278.40
55008;DHT22;40902;45.116;21.296;2023-04-01T19:10:31;282.30;2278.40
55008;DHT22;40902;45.116;21.296;2023-04-01T19:21:41;282.50;2278.40
55008;DHT22;40902;45.116;21.296;2023-04-01T19:24:40;282.50;2278.40
55008;DHT22;40902;45.116;21.296;2023-04-01T19:45:32;282.50;2278.40
55008;DHT22;40902;45.116;21.296;2023-04-01T19:50:50;282.50;2278.40
55008;DHT22;40902;45.116;21.296;2023-04-01T19:53:25;307.40;2304.00
55008;DHT22;40902;45.116;21.296;2023-04-01T19:56:17;282.50;2278.40
55008;DHT22;40902;45.116;21.296;2023-04-01T20:01:38;307.20;2304.00
55008;DHT22;40902;45.116;21.296;2023-04-01T20:04:17;282.50;2278.40
55008;DHT22;40902;45.116;21.296;2023-04-01T20:07:07;307.20;2304.00
55008;DHT22;40902;45.116;21.296;2023-04-01T20:14:56;307.20;2304.00
55008;DHT22;40902;45.116;21.296;2023-04-01T20:20:19;307.60;2304.00
55008;DHT22;40902;45.116;21.296;2023-04-01T20:49:41;307.40;2304.00
55008;DHT22;40902;45.116;21.296;2023-04-01T21:14:44;307.60;2304.00
55008;DHT22;40902;45.116;21.296;2023-04-01T21:33:52;308.00;2304.00
55008;DHT22;40902;45.116;21.296;2023-04-01T21:36:47;308.00;2304.00
55008;DHT22;40902;45.116;21.296;2023-04-01T21:39:40;308.10;2304.00
55008;DHT22;40902;45.116;21.296;2023-04-01T21:42:29;308.10;2304.00
55008;DHT22;40902;45.116;21.296;2023-04-01T21:48:05;308.10;2304.00
55008;DHT22;40902;45.116;21.296;2023-04-01T21:51:27;308.10;2304.00
55008;DHT22;40902;45.116;21.296;2023-04-01T21:53:44;308.10;2304.00
55008;DHT22;40902;45.116;21.296;2023-04-01T21:56:48;308.10;2304.00
55008;DHT22;40902;45.116;21.296;2023-04-01T22:07:40;307.90;2304.00
55008;DHT22;40902;45.116;21.296;2023-04-01T22:11:11;307.90;2304.00
55008;DHT22;40902;45.116;21.296;2023-04-01T22:13:23;307.90;2304.00
55008;DHT22;40902;45.116;21.296;2023-04-01T22:27:00;307.80;2304.00
55008;DHT22;40902;45.116;21.296;2023-04-01T22:29:47;307.80;2304.00
55008;DHT22;40902;45.116;21.296;2023-04-01T22:32:26;307.80;2304.00
55008;DHT22;40902;45.116;21.296;2023-04-01T22:42:53;307.70;2304.00
55008;DHT22;40902;45.116;21.296;2023-04-01T22:55:50;307.60;2304.00
55008;DHT22;40902;45.116;21.296;2023-04-01T22:58:21;307.60;2304.00
55008;DHT22;40902;45.116;21.296;2023-04-01T23:01:00;307.60;2304.00
55008;DHT22;40902;45.116;21.296;2023-04-01T23:03:35;307.60;2304.00
55008;DHT22;40902;45.116;21.296;2023-04-01T23:06:05;307.50;2304.00
55008;DHT22;40902;45.116;21.296;2023-04-01T23:11:52;307.50;2304.00
55008;DHT22;40902;45.116;21.296;2023-04-01T23:17:15;307.40;2304.00
55008;DHT22;40902;45.116;21.296;2023-04-01T23:20:10;307.40;2304.00
55008;DHT22;40902;45.116;21.296;2023-04-01T23:30:58;307.30;2304.00
55008;DHT22;40902;45.116;21.296;2023-04-01T23:33:28;307.30;2304.00
55008;DHT22;40902;45.116;21.296;2023-04-01T23:38:25;307.20;2304.00
55008;DHT22;40902;45.116;21.296;2023-04-01T23:40:53;307.30;2304.00
55008;DHT22;40902;45.116;21.296;2023-04-01T23:43:25;307.20;2304.00
55008;DHT22;40902;45.116;21.296;2023-04-01T23:45:53;307.20;2304.00
55008;DHT22;40902;45.116;21.296;2023-04-01T23:48:21;307.20;2304.00
55008;DHT22;40902;45.116;21.296;2023-04-01T23:50:49;307.20;2304.00
55008;DHT22;40902;45.116;21.296;2023-04-01T23:53:24;282.50;2278.40
55008;DHT22;40902;45.116;21.296;2023-04-01T23:55:52;282.50;2278.40
55008;DHT22;40902;45.116;21.296;2023-04-01T23:58:23;282.50;2278.40
